createdAt,value
2023-04-20T00:00:23.465Z,75.20
2023-04-20T00:05:43.597Z,75.14
2023-04-20T00:10:42.582Z,75.38
2023-04-20T00:15:42.114Z,75.55
2023-04-20T00:20:41.465Z,75.79
2023-04-20T00:25:40.332Z,76.06
2023-04-20T00:30:39.247Z,76.10
2023-04-20T00:35:38.238Z,76.11
2023-04-20T00:40:37.059Z,76.22
2023-04-20T00:45:36.934Z,76.32
2023-04-20T00:50:36.831Z,76.48
2023-04-20T00:55:40.211Z,76.40
2023-04-20T01:00:39.596Z,76.50
2023-04-20T01:05:39.099Z,76.41
2023-04-20T01:10:38.957Z,76.40
2023-04-20T01:15:39.325Z,76.29
2023-04-20T01:20:37.982Z,76.25
2023-04-20T01:25:37.607Z,76.19
2023-04-20T01:30:38.448Z,76.13
2023-04-20T01:35:37.758Z,76.14
2023-04-20T01:40:37.731Z,76.11
2023-04-20T01:45:37.524Z,76.07
2023-04-20T01:50:37.655Z,76.10
2023-04-20T01:55:37.113Z,76.03
2023-04-20T02:00:35.924Z,76.09
2023-04-20T02:05:35.865Z,76.33
2023-04-20T02:10:35.156Z,76.26
2023-04-20T02:15:34.523Z,76.16
2023-04-20T02:20:33.866Z,76.01
2023-04-20T02:25:33.085Z,76.00
2023-04-20T02:30:33.131Z,76.03
2023-04-20T02:35:32.223Z,75.97
2023-04-20T02:40:31.391Z,76.01
2023-04-20T02:45:31.079Z,75.99
2023-04-20T02:50:31.426Z,75.94
2023-04-20T02:55:39.584Z,75.93
2023-04-20T03:00:50.554Z,75.93
2023-04-20T03:05:50.281Z,76.00
2023-04-20T03:10:49.473Z,75.99
2023-04-20T03:15:51.537Z,76.03
2023-04-20T03:21:01.028Z,76.13
2023-04-20T03:26:01.837Z,76.18
2023-04-20T03:31:08.918Z,76.21
2023-04-20T03:36:12.600Z,76.21
2023-04-20T03:41:12.036Z,76.26
2023-04-20T03:46:11.375Z,76.23
2023-04-20T03:51:14.269Z,76.33
2023-04-20T03:56:15.536Z,76.39
2023-04-20T04:01:16.482Z,76.49
2023-04-20T04:06:19.298Z,76.52
2023-04-20T04:11:18.825Z,76.61
2023-04-20T04:16:19.910Z,76.78
2023-04-20T04:21:21.384Z,76.96
2023-04-20T04:26:26.997Z,77.00
2023-04-20T04:31:27.728Z,77.00
2023-04-20T04:36:32.424Z,77.00
2023-04-20T04:41:32.254Z,77.06
2023-04-20T04:46:40.956Z,76.94
2023-04-20T04:51:40.392Z,77.04
2023-04-20T04:56:39.772Z,77.25
2023-04-20T05:01:39.114Z,77.14
2023-04-20T05:06:38.204Z,77.04
2023-04-20T05:11:37.419Z,77.06
2023-04-20T05:16:36.575Z,76.99
2023-04-20T05:21:36.255Z,76.75
2023-04-20T05:26:36.660Z,76.31
2023-04-20T05:31:35.399Z,76.00
2023-04-20T05:36:37.506Z,75.74
2023-04-20T05:41:37.179Z,75.24
2023-04-20T05:46:36.353Z,74.76
2023-04-20T05:51:36.271Z,74.40
2023-04-20T05:56:39.511Z,73.86
2023-04-20T06:01:38.674Z,73.48
2023-04-20T06:06:37.890Z,72.92
2023-04-20T06:11:37.494Z,72.33
2023-04-20T06:16:36.810Z,71.86
2023-04-20T06:21:36.574Z,71.29
2023-04-20T06:26:36.264Z,70.78
2023-04-20T06:31:35.475Z,69.96
2023-04-20T06:36:34.106Z,69.36
2023-04-20T06:41:33.395Z,68.40
2023-04-20T06:46:34.690Z,67.49
2023-04-20T06:51:35.192Z,66.57
2023-04-20T06:56:35.570Z,65.60
2023-04-20T07:01:35.840Z,64.57
2023-04-20T07:06:34.662Z,63.31
2023-04-20T07:11:33.932Z,62.72
2023-04-20T07:16:32.603Z,62.36
2023-04-20T07:21:32.498Z,61.79
2023-04-20T07:26:31.621Z,61.19
2023-04-20T07:31:32.864Z,60.70
2023-04-20T07:36:33.766Z,59.85
2023-04-20T07:41:33.194Z,58.78
2023-04-20T07:46:32.620Z,58.13
2023-04-20T07:51:33.511Z,57.73
2023-04-20T07:56:33.253Z,57.47
2023-04-20T08:01:32.984Z,56.85
2023-04-20T08:06:33.089Z,55.67
2023-04-20T08:11:32.241Z,55.12
2023-04-20T08:16:31.505Z,55.15
2023-04-20T08:21:31.764Z,54.12
2023-04-20T08:26:30.398Z,53.25
2023-04-20T08:31:30.691Z,53.13
2023-04-20T08:36:30.175Z,53.17
2023-04-20T08:41:32.723Z,53.37
2023-04-20T08:46:32.237Z,52.63
2023-04-20T08:51:32.722Z,52.35
2023-04-20T08:56:41.423Z,52.12
2023-04-20T09:01:42.208Z,51.72
2023-04-20T09:06:47.656Z,50.92
2023-04-20T09:11:47.624Z,50.67
2023-04-20T09:17:00.821Z,49.72
2023-04-20T09:22:04.040Z,49.08
2023-04-20T09:27:04.349Z,47.28
2023-04-20T09:32:03.181Z,47.72
2023-04-20T09:37:03.396Z,47.47
2023-04-20T09:42:10.711Z,45.44
2023-04-20T09:47:11.195Z,44.72
2023-04-20T09:52:14.856Z,43.78
2023-04-20T09:57:15.974Z,42.47
2023-04-20T10:02:16.741Z,40.49
2023-04-20T10:07:28.126Z,38.54
2023-04-20T10:12:27.276Z,37.33
2023-04-20T10:17:35.332Z,36.83
2023-04-20T10:22:37.063Z,36.31
2023-04-20T10:27:36.284Z,36.26
2023-04-20T10:32:35.820Z,34.76
2023-04-20T10:37:35.384Z,34.44
2023-04-20T10:42:44.670Z,34.17
2023-04-20T10:47:45.613Z,34.03
2023-04-20T10:52:47.222Z,32.79
2023-04-20T10:57:49.871Z,32.46
2023-04-20T11:02:53.768Z,32.22
2023-04-20T11:08:02.174Z,31.86
2023-04-20T11:13:01.670Z,31.49
2023-04-20T11:18:09.922Z,30.34
2023-04-20T11:23:09.185Z,30.81
2023-04-20T11:28:12.968Z,30.22
2023-04-20T11:33:14.219Z,29.42
2023-04-20T11:38:13.563Z,29.84
2023-04-20T11:43:12.882Z,29.35
2023-04-20T11:48:14.184Z,28.31
2023-04-20T11:53:15.040Z,28.00
2023-04-20T11:58:14.534Z,27.58
2023-04-20T12:03:13.783Z,28.01
2023-04-20T12:08:13.088Z,27.78
2023-04-20T12:13:12.700Z,27.30
2023-04-20T12:18:12.307Z,26.49
2023-04-20T12:23:12.085Z,26.44
2023-04-20T12:28:11.648Z,26.17
2023-04-20T12:33:11.059Z,25.39
2023-04-20T12:38:11.795Z,24.93
2023-04-20T12:43:13.035Z,24.85
2023-04-20T12:48:15.109Z,24.76
2023-04-20T12:53:14.521Z,24.42
2023-04-20T12:58:16.301Z,24.35
2023-04-20T13:03:16.470Z,24.02
2023-04-20T13:08:16.341Z,24.41
2023-04-20T13:13:15.776Z,24.78
2023-04-20T13:18:15.578Z,25.52
2023-04-20T13:23:15.606Z,25.59
2023-04-20T13:28:15.633Z,24.96
2023-04-20T13:33:14.860Z,25.45
2023-04-20T13:38:14.603Z,24.11
2023-04-20T13:43:14.100Z,23.76
2023-04-20T13:48:13.637Z,22.73
2023-04-20T13:53:13.228Z,23.24
2023-04-20T13:58:12.190Z,23.28
2023-04-20T14:03:15.856Z,23.67
2023-04-20T14:08:15.133Z,24.33
2023-04-20T14:13:15.427Z,23.70
2023-04-20T14:18:15.087Z,23.39
2023-04-20T14:23:15.185Z,22.75
2023-04-20T14:28:15.246Z,23.08
2023-04-20T14:33:14.576Z,22.98
2023-04-20T14:38:13.932Z,23.58
2023-04-20T14:43:12.829Z,23.58
2023-04-20T14:48:14.063Z,23.79
2023-04-20T14:53:12.577Z,23.90
2023-04-20T14:58:17.906Z,23.75
2023-04-20T15:04:05.813Z,23.54
2023-04-20T15:09:05.006Z,23.88
2023-04-20T15:14:04.407Z,24.36
2023-04-20T15:19:03.585Z,23.99
2023-04-20T15:24:03.872Z,24.42
2023-04-20T15:29:03.339Z,23.92
2023-04-20T15:34:04.537Z,23.66
2023-04-20T15:39:08.492Z,23.41
2023-04-20T15:44:10.153Z,23.37
2023-04-20T15:49:12.826Z,23.33
2023-04-20T15:54:49.923Z,22.65
2023-04-20T16:00:41.767Z,22.01
2023-04-20T16:05:48.112Z,20.91
2023-04-20T16:10:50.671Z,20.64
2023-04-20T16:15:59.152Z,20.19
2023-04-20T16:20:59.941Z,19.64
2023-04-20T16:26:01.336Z,20.03
2023-04-20T16:31:01.402Z,20.80
2023-04-20T16:42:27.757Z,22.72
2023-04-20T16:47:27.434Z,23.69
2023-04-20T16:52:26.799Z,24.58
2023-04-20T16:57:26.329Z,24.90
2023-04-20T17:02:31.508Z,25.41
2023-04-20T17:07:31.923Z,25.84
2023-04-20T17:12:31.981Z,26.61
2023-04-20T17:17:32.038Z,26.91
2023-04-20T17:22:30.839Z,27.79
2023-04-20T17:27:30.784Z,28.74
2023-04-20T17:32:30.335Z,29.39
2023-04-20T17:37:30.042Z,29.82
2023-04-20T17:42:29.538Z,30.35
2023-04-20T17:47:32.891Z,30.86
2023-04-20T17:52:32.903Z,31.42
2023-04-20T17:57:32.349Z,32.10
2023-04-20T18:02:34.869Z,32.52
2023-04-20T18:07:34.866Z,32.99
2023-04-20T18:12:36.078Z,33.19
2023-04-20T18:17:35.157Z,33.78
2023-04-20T18:22:34.370Z,34.44
2023-04-20T18:27:34.563Z,34.89
2023-04-20T18:32:36.560Z,35.35
2023-04-20T18:37:36.403Z,35.93
2023-04-20T18:42:36.218Z,36.33
2023-04-20T18:47:36.015Z,36.90
2023-04-20T18:52:42.245Z,37.37
2023-04-20T18:57:48.639Z,37.80
2023-04-20T19:03:33.181Z,38.37
2023-04-20T19:08:35.087Z,38.67
2023-04-20T19:13:44.622Z,39.26
2023-04-20T19:18:46.901Z,39.76
2023-04-20T19:23:46.285Z,40.15
2023-04-20T19:28:49.050Z,40.56
2023-04-20T19:33:51.403Z,41.14
2023-04-20T19:38:54.072Z,41.58
2023-04-20T19:43:59.633Z,41.92
2023-04-20T19:49:04.462Z,42.39
2023-04-20T19:54:06.001Z,42.67
2023-04-20T19:59:05.610Z,42.91
2023-04-20T20:04:09.040Z,42.95
2023-04-20T20:09:09.862Z,43.25
2023-04-20T20:14:09.636Z,43.33
2023-04-20T20:19:10.339Z,43.54
2023-04-20T20:24:11.702Z,43.69
2023-04-20T20:29:12.641Z,43.87
2023-04-20T20:34:12.879Z,44.14
2023-04-20T20:39:12.923Z,44.47
2023-04-20T20:44:13.979Z,44.74
2023-04-20T20:49:14.027Z,45.12
2023-04-20T20:54:13.953Z,45.51
2023-04-20T20:59:13.403Z,45.82
2023-04-20T21:04:13.050Z,46.19
2023-04-20T21:09:12.157Z,46.56
2023-04-20T21:14:11.180Z,46.94
2023-04-20T21:19:11.382Z,47.31
2023-04-20T21:24:11.902Z,47.78
2023-04-20T21:29:12.072Z,48.06
2023-04-20T21:34:11.739Z,48.37
2023-04-20T21:39:10.970Z,48.66
2023-04-20T21:44:10.778Z,49.00
2023-04-20T21:49:12.976Z,49.30
2023-04-20T21:54:12.804Z,49.45
2023-04-20T21:59:11.475Z,49.83
2023-04-20T22:04:11.237Z,50.09
2023-04-20T22:09:10.668Z,50.28
2023-04-20T22:14:10.497Z,50.53
2023-04-20T22:19:10.376Z,50.81
2023-04-20T22:24:11.684Z,51.17
2023-04-20T22:29:11.755Z,51.54
2023-04-20T22:34:11.003Z,51.85
2023-04-20T22:39:12.200Z,52.15
2023-04-20T22:44:12.851Z,52.28
2023-04-20T22:49:13.781Z,52.47
2023-04-20T22:54:14.271Z,52.76
2023-04-20T22:59:14.610Z,53.03
2023-04-20T23:05:02.632Z,53.36
2023-04-20T23:11:08.696Z,53.77
2023-04-20T23:16:34.788Z,54.05
2023-04-20T23:22:35.620Z,54.24
2023-04-20T23:27:56.394Z,54.56
2023-04-20T23:32:56.222Z,54.81
2023-04-20T23:37:58.248Z,54.96
2023-04-20T23:42:59.434Z,55.21
2023-04-20T23:48:01.427Z,55.31
2023-04-20T23:53:06.006Z,55.52
2023-04-20T23:58:07.916Z,55.70
